createdAt,value
2023-04-26T00:00:13.884Z,4.17
2023-04-26T00:01:45.825Z,4.68
2023-04-26T00:03:17.925Z,5.28
2023-04-26T00:04:58.298Z,4.15
2023-04-26T00:06:30.428Z,4.43
2023-04-26T00:08:03.125Z,4.30
2023-04-26T00:09:35.554Z,4.57
2023-04-26T00:11:07.474Z,4.38
2023-04-26T00:12:41.445Z,4.47
2023-04-26T00:14:13.826Z,4.45
2023-04-26T00:15:46.093Z,4.88
2023-04-26T00:17:18.161Z,5.53
2023-04-26T00:18:50.580Z,5.47
2023-04-26T00:20:22.659Z,5.47
2023-04-26T00:21:54.613Z,5.25
2023-04-26T00:23:26.881Z,3.50
2023-04-26T00:24:59.430Z,5.20
2023-04-26T00:26:31.729Z,5.47
2023-04-26T00:28:03.937Z,5.43
2023-04-26T00:29:39.145Z,5.35
2023-04-26T00:31:17.935Z,5.13
2023-04-26T00:32:49.955Z,5.07
2023-04-26T00:34:21.934Z,6.43
2023-04-26T00:35:55.264Z,5.28
2023-04-26T00:37:27.156Z,4.88
2023-04-26T00:38:59.176Z,5.22
2023-04-26T00:40:31.795Z,6.40
2023-04-26T00:42:03.834Z,5.38
2023-04-26T00:43:36.175Z,5.07
2023-04-26T00:45:08.712Z,6.82
2023-04-26T00:46:41.756Z,6.88
2023-04-26T00:48:13.827Z,5.45
2023-04-26T00:49:45.919Z,5.68
2023-04-26T00:51:18.046Z,5.38
2023-04-26T00:52:50.874Z,5.78
2023-04-26T00:54:22.856Z,6.40
2023-04-26T00:55:54.922Z,5.07
2023-04-26T00:57:27.051Z,5.20
2023-04-26T00:59:00.216Z,5.50
2023-04-26T01:00:32.378Z,5.23
2023-04-26T01:02:04.621Z,5.55
2023-04-26T01:03:36.790Z,5.28
2023-04-26T01:05:09.674Z,4.65
2023-04-26T01:06:42.168Z,5.32
2023-04-26T01:08:17.432Z,4.10
2023-04-26T01:09:49.509Z,5.97
2023-04-26T01:11:22.508Z,5.10
2023-04-26T01:12:54.842Z,5.20
2023-04-26T01:14:27.818Z,4.90
2023-04-26T01:16:00.181Z,6.18
2023-04-26T01:17:32.606Z,5.75
2023-04-26T01:19:09.787Z,6.07
2023-04-26T01:20:43.322Z,5.80
2023-04-26T01:22:15.303Z,5.97
2023-04-26T01:23:48.353Z,5.53
2023-04-26T01:25:20.584Z,5.20
2023-04-26T01:26:52.637Z,5.60
2023-04-26T01:28:25.629Z,5.85
2023-04-26T01:29:57.676Z,5.90
2023-04-26T01:31:29.756Z,5.78
2023-04-26T01:33:03.223Z,5.63
2023-04-26T01:34:35.320Z,5.70
2023-04-26T01:36:13.427Z,5.97
2023-04-26T01:37:45.365Z,6.38
2023-04-26T01:39:19.878Z,5.57
2023-04-26T01:40:51.844Z,6.03
2023-04-26T01:42:23.763Z,5.55
2023-04-26T01:43:56.198Z,6.53
2023-04-26T01:45:31.275Z,6.22
2023-04-26T01:47:21.763Z,5.75
2023-04-26T01:48:54.011Z,6.47
2023-04-26T01:50:28.049Z,6.72
2023-04-26T01:52:00.075Z,6.50
2023-04-26T01:53:32.055Z,6.10
2023-04-26T01:55:04.548Z,5.87
2023-04-26T01:56:36.502Z,6.53
2023-04-26T01:58:08.397Z,7.00
2023-04-26T01:59:40.337Z,6.80
2023-04-26T02:01:12.681Z,5.85
2023-04-26T02:02:45.070Z,6.55
2023-04-26T02:04:17.165Z,5.10
2023-04-26T02:05:49.331Z,6.65
2023-04-26T02:07:21.322Z,7.32
2023-04-26T02:08:54.068Z,6.20
2023-04-26T02:10:26.378Z,6.82
2023-04-26T02:11:58.316Z,6.75
2023-04-26T02:13:31.496Z,6.18
2023-04-26T02:15:03.685Z,6.77
2023-04-26T02:16:35.733Z,6.35
2023-04-26T02:18:07.840Z,6.60
2023-04-26T02:21:13.012Z,7.20
2023-04-26T02:22:45.046Z,7.07
2023-04-26T02:24:20.431Z,7.35
2023-04-26T02:25:52.455Z,5.72
2023-04-26T02:27:24.403Z,6.80
2023-04-26T02:28:56.377Z,6.70
2023-04-26T02:30:28.517Z,6.60
2023-04-26T02:32:00.660Z,6.88
2023-04-26T02:33:33.602Z,6.43
2023-04-26T02:35:06.158Z,6.65
2023-04-26T02:36:38.118Z,7.60
2023-04-26T02:38:10.158Z,5.80
2023-04-26T02:39:42.314Z,7.10
2023-04-26T02:41:14.272Z,6.53
2023-04-26T02:42:46.395Z,7.20
2023-04-26T02:44:18.392Z,6.57
2023-04-26T02:45:50.396Z,6.20
2023-04-26T02:47:22.392Z,6.20
2023-04-26T02:48:54.704Z,7.15
2023-04-26T02:50:26.900Z,6.28
2023-04-26T02:51:59.013Z,7.53
2023-04-26T02:53:30.990Z,7.22
2023-04-26T02:55:06.792Z,7.88
2023-04-26T02:56:38.741Z,6.28
2023-04-26T02:58:10.712Z,8.10
2023-04-26T02:59:44.259Z,7.77
2023-04-26T03:01:16.688Z,6.85
2023-04-26T03:02:48.872Z,6.75
2023-04-26T03:04:20.917Z,7.63
2023-04-26T03:08:05.102Z,6.30
2023-04-26T03:09:39.076Z,6.78
2023-04-26T03:11:11.851Z,6.60
2023-04-26T03:12:43.784Z,7.47
2023-04-26T03:14:15.700Z,7.25
2023-04-26T03:15:47.706Z,6.90
2023-04-26T03:17:19.906Z,7.05
2023-04-26T03:18:52.876Z,6.80
2023-04-26T03:20:26.020Z,6.15
2023-04-26T03:21:58.117Z,6.97
2023-04-26T03:23:30.085Z,7.07
2023-04-26T03:25:02.136Z,6.93
2023-04-26T03:26:34.218Z,6.55
2023-04-26T03:28:06.480Z,6.20
2023-04-26T03:29:38.498Z,6.68
2023-04-26T03:31:10.998Z,6.72
2023-04-26T03:32:43.211Z,6.70
2023-04-26T03:34:15.318Z,6.35
2023-04-26T03:35:47.314Z,7.70
2023-04-26T03:37:19.319Z,6.67
2023-04-26T03:38:58.156Z,6.45
2023-04-26T03:40:30.300Z,7.20
2023-04-26T03:42:04.241Z,8.02
2023-04-26T03:43:36.625Z,7.07
2023-04-26T03:45:09.097Z,6.05
2023-04-26T03:46:41.189Z,6.78
2023-04-26T03:48:13.117Z,6.43
2023-04-26T03:49:45.077Z,8.23
2023-04-26T03:51:17.093Z,6.88
2023-04-26T03:52:49.015Z,6.63
2023-04-26T03:54:21.035Z,7.60
2023-04-26T03:55:53.033Z,7.60
2023-04-26T03:57:25.672Z,7.18
2023-04-26T03:58:57.657Z,6.15
2023-04-26T04:00:31.239Z,6.53
2023-04-26T04:02:03.334Z,6.50
2023-04-26T04:03:37.900Z,7.07
2023-04-26T04:05:12.195Z,6.78
2023-04-26T04:06:44.347Z,7.32
2023-04-26T04:08:16.746Z,6.85
2023-04-26T04:09:48.759Z,6.90
2023-04-26T04:11:21.746Z,7.30
2023-04-26T04:14:26.392Z,7.75
2023-04-26T04:15:58.402Z,6.55
2023-04-26T04:17:30.508Z,6.80
2023-04-26T04:19:02.543Z,7.68
2023-04-26T04:20:34.636Z,6.47
2023-04-26T04:22:07.370Z,7.25
2023-04-26T04:23:39.838Z,7.32
2023-04-26T04:25:14.443Z,6.65
2023-04-26T04:26:46.824Z,7.60
2023-04-26T04:28:19.652Z,7.47
2023-04-26T04:29:51.758Z,7.97
2023-04-26T04:31:23.789Z,7.30
2023-04-26T04:32:56.325Z,7.88
2023-04-26T04:34:28.329Z,7.40
2023-04-26T04:36:00.787Z,8.68
2023-04-26T04:39:12.712Z,7.35
2023-04-26T04:40:45.091Z,8.00
2023-04-26T04:42:17.087Z,7.95
2023-04-26T04:43:49.204Z,7.65
2023-04-26T04:45:21.736Z,7.70
2023-04-26T04:46:55.068Z,8.05
2023-04-26T04:48:27.219Z,7.32
2023-04-26T04:52:22.016Z,7.43
2023-04-26T04:53:54.016Z,8.65
2023-04-26T04:55:25.990Z,6.95
2023-04-26T04:56:58.004Z,7.63
2023-04-26T04:58:29.925Z,7.70
2023-04-26T05:00:10.194Z,7.70
2023-04-26T05:01:47.907Z,9.35
2023-04-26T05:04:53.098Z,7.88
2023-04-26T05:06:25.670Z,9.00
2023-04-26T05:07:57.796Z,6.68
2023-04-26T05:09:30.066Z,6.55
2023-04-26T05:11:03.202Z,8.48
2023-04-26T05:12:35.628Z,7.85
2023-04-26T05:14:07.950Z,8.23
2023-04-26T05:15:40.069Z,8.50
2023-04-26T05:18:44.866Z,7.43
2023-04-26T05:20:16.918Z,8.07
2023-04-26T05:21:48.840Z,8.52
2023-04-26T05:23:23.172Z,8.13
2023-04-26T05:24:55.081Z,9.35
2023-04-26T05:26:26.970Z,8.57
2023-04-26T05:27:58.846Z,8.18
2023-04-26T05:29:42.004Z,8.90
2023-04-26T05:31:34.244Z,7.10
2023-04-26T05:33:24.608Z,7.70
2023-04-26T05:35:17.158Z,8.63
2023-04-26T05:36:49.950Z,7.65
2023-04-26T05:38:24.599Z,8.00
2023-04-26T05:39:56.585Z,7.88
2023-04-26T05:41:28.540Z,8.65
2023-04-26T05:43:00.458Z,9.00
2023-04-26T05:44:33.067Z,8.57
2023-04-26T05:46:05.029Z,8.60
2023-04-26T05:47:37.678Z,8.90
2023-04-26T05:49:09.618Z,8.98
2023-04-26T05:53:04.622Z,8.40
2023-04-26T05:54:37.040Z,10.60
2023-04-26T05:56:10.085Z,9.05
2023-04-26T05:57:42.351Z,9.95
2023-04-26T05:59:14.366Z,9.40
2023-04-26T06:00:46.422Z,9.23
2023-04-26T06:02:18.428Z,8.60
2023-04-26T06:03:50.850Z,9.07
2023-04-26T06:05:26.255Z,9.43
2023-04-26T06:06:58.410Z,9.07
2023-04-26T06:08:31.115Z,10.13
2023-04-26T06:10:03.084Z,8.82
2023-04-26T06:11:35.815Z,10.60
2023-04-26T06:13:07.788Z,7.07
2023-04-26T06:14:42.018Z,8.93
2023-04-26T06:16:19.335Z,9.60
2023-04-26T06:17:53.255Z,10.02
2023-04-26T06:19:25.257Z,9.73
2023-04-26T06:20:57.199Z,9.00
2023-04-26T06:22:29.816Z,9.85
2023-04-26T06:24:04.724Z,8.80
2023-04-26T06:25:37.396Z,9.82
2023-04-26T06:27:09.745Z,8.85
2023-04-26T06:28:43.191Z,10.10
2023-04-26T06:30:15.230Z,9.57
2023-04-26T06:31:51.150Z,9.25
2023-04-26T06:33:25.320Z,9.52
2023-04-26T06:34:57.714Z,9.40
2023-04-26T06:36:29.743Z,9.30
2023-04-26T06:38:01.657Z,9.60
2023-04-26T06:39:33.643Z,8.70
2023-04-26T06:41:05.762Z,8.77
2023-04-26T06:42:38.355Z,9.70
2023-04-26T06:44:22.413Z,8.35
2023-04-26T06:45:54.477Z,11.13
2023-04-26T06:47:26.538Z,9.07
2023-04-26T06:49:01.801Z,8.85
2023-04-26T06:50:33.867Z,9.10
2023-04-26T06:52:08.696Z,10.35
2023-04-26T06:53:44.021Z,8.23
2023-04-26T06:55:15.949Z,11.15
2023-04-26T06:56:47.882Z,6.43
2023-04-26T06:58:19.860Z,8.98
2023-04-26T06:59:51.805Z,9.00
2023-04-26T07:01:23.753Z,8.60
2023-04-26T07:02:56.084Z,9.63
2023-04-26T07:04:28.332Z,8.57
2023-04-26T07:06:00.386Z,8.27
2023-04-26T07:07:32.418Z,8.13
2023-04-26T07:09:04.804Z,8.38
2023-04-26T07:10:38.021Z,8.85
2023-04-26T07:12:13.944Z,8.18
2023-04-26T07:13:45.849Z,8.38
2023-04-26T07:15:17.906Z,8.13
2023-04-26T07:16:49.973Z,8.07
2023-04-26T07:18:21.964Z,9.38
2023-04-26T07:19:55.525Z,8.75
2023-04-26T07:21:28.137Z,7.75
2023-04-26T07:22:59.989Z,8.33
2023-04-26T07:24:31.953Z,8.55
2023-04-26T07:26:04.725Z,8.30
2023-04-26T07:27:36.918Z,7.43
2023-04-26T07:29:08.892Z,9.35
2023-04-26T07:30:40.930Z,7.65
2023-04-26T07:32:13.433Z,7.90
2023-04-26T07:33:45.431Z,8.35
2023-04-26T07:35:17.574Z,8.45
2023-04-26T07:36:49.472Z,7.30
2023-04-26T07:38:21.453Z,6.97
2023-04-26T07:39:53.356Z,7.57
2023-04-26T07:41:25.482Z,6.78
2023-04-26T07:42:57.590Z,7.13
2023-04-26T07:44:29.676Z,7.80
2023-04-26T07:46:04.984Z,7.60
2023-04-26T07:47:37.045Z,7.13
2023-04-26T07:49:09.284Z,6.63
2023-04-26T07:50:41.261Z,6.53
2023-04-26T07:52:13.162Z,6.60
2023-04-26T07:53:45.253Z,5.27
2023-04-26T07:55:17.843Z,6.32
2023-04-26T07:56:49.895Z,5.40
2023-04-26T07:58:21.852Z,5.47
2023-04-26T07:59:53.721Z,6.00
2023-04-26T08:01:25.924Z,5.32
2023-04-26T08:02:58.172Z,5.53
2023-04-26T08:04:35.451Z,5.53
2023-04-26T08:06:09.058Z,5.20
2023-04-26T08:07:43.939Z,5.75
2023-04-26T08:09:15.828Z,5.82
2023-04-26T08:10:48.174Z,4.88
2023-04-26T08:12:20.124Z,6.00
2023-04-26T08:13:52.168Z,4.20
2023-04-26T08:15:27.194Z,5.20
2023-04-26T08:16:59.131Z,5.45
2023-04-26T08:18:31.126Z,4.13
2023-04-26T08:20:05.277Z,5.80
2023-04-26T08:21:37.958Z,5.20
2023-04-26T08:23:09.942Z,2.88
2023-04-26T08:24:41.865Z,4.70
2023-04-26T08:26:13.717Z,3.60
2023-04-26T08:27:45.674Z,4.13
2023-04-26T08:29:18.927Z,6.38
2023-04-26T08:30:51.012Z,5.40
2023-04-26T08:32:22.918Z,2.57
2023-04-26T08:33:54.977Z,2.47
2023-04-26T08:35:27.063Z,3.25
2023-04-26T08:36:59.015Z,2.92
2023-04-26T08:38:32.483Z,2.93
2023-04-26T08:40:11.236Z,3.40
2023-04-26T08:41:44.431Z,3.10
2023-04-26T08:43:19.166Z,3.47
2023-04-26T08:44:51.487Z,3.08
2023-04-26T08:46:25.668Z,2.72
2023-04-26T08:48:04.326Z,2.20
2023-04-26T08:49:43.885Z,1.70
2023-04-26T08:51:16.412Z,2.95
2023-04-26T08:52:51.119Z,2.35
2023-04-26T08:54:23.290Z,2.50
2023-04-26T08:55:55.277Z,3.13
2023-04-26T08:57:27.702Z,2.50
2023-04-26T08:59:00.248Z,2.10
2023-04-26T09:00:32.240Z,1.55
2023-04-26T09:02:08.018Z,1.55
2023-04-26T09:03:40.191Z,2.08
2023-04-26T09:05:12.631Z,2.45
2023-04-26T09:06:44.896Z,1.30
2023-04-26T09:08:20.039Z,1.58
2023-04-26T09:09:52.496Z,1.80
2023-04-26T09:11:24.397Z,2.63
2023-04-26T09:12:56.788Z,2.13
2023-04-26T09:14:28.839Z,1.48
2023-04-26T09:16:02.738Z,2.22
2023-04-26T09:17:38.838Z,1.33
2023-04-26T09:19:11.246Z,1.75
2023-04-26T09:20:45.214Z,1.67
2023-04-26T09:22:28.395Z,1.40
2023-04-26T09:25:34.227Z,1.40
2023-04-26T09:27:06.254Z,2.08
2023-04-26T09:28:38.261Z,2.47
2023-04-26T09:30:18.562Z,3.05
2023-04-26T09:31:51.021Z,1.92
2023-04-26T09:33:23.162Z,2.45
2023-04-26T09:34:55.121Z,3.55
2023-04-26T09:36:27.801Z,2.87
2023-04-26T09:38:07.956Z,2.65
2023-04-26T09:39:44.079Z,2.45
2023-04-26T09:41:16.005Z,3.00
2023-04-26T09:42:48.028Z,2.97
2023-04-26T09:44:26.320Z,2.65
2023-04-26T09:45:59.067Z,3.03
2023-04-26T09:49:10.149Z,2.53
2023-04-26T09:50:43.564Z,2.20
2023-04-26T09:52:16.469Z,2.25
2023-04-26T09:55:35.253Z,2.67
2023-04-26T09:57:07.932Z,2.03
2023-04-26T09:58:58.495Z,2.53
2023-04-26T10:00:31.296Z,2.40
2023-04-26T10:02:03.668Z,2.40
2023-04-26T10:03:36.517Z,2.75
2023-04-26T10:05:09.571Z,2.65
2023-04-26T10:08:13.560Z,2.42
2023-04-26T10:09:47.027Z,2.78
2023-04-26T10:11:19.164Z,2.58
2023-04-26T10:12:51.373Z,3.20
2023-04-26T10:14:23.305Z,2.90
2023-04-26T10:15:56.806Z,2.30
2023-04-26T10:17:28.760Z,2.65
2023-04-26T10:19:00.703Z,2.40
2023-04-26T10:20:32.788Z,2.03
2023-04-26T10:22:07.420Z,2.42
2023-04-26T10:23:40.963Z,3.67
2023-04-26T10:25:13.006Z,2.30
2023-04-26T10:26:59.870Z,2.33
2023-04-26T10:28:40.440Z,2.03
2023-04-26T10:30:16.886Z,1.73
2023-04-26T10:32:11.042Z,1.92
2023-04-26T10:33:43.017Z,1.90
2023-04-26T10:35:15.953Z,1.90
2023-04-26T10:38:42.644Z,1.42
2023-04-26T10:40:24.773Z,1.70
2023-04-26T10:42:24.698Z,1.60
2023-04-26T10:44:00.120Z,2.28
2023-04-26T10:45:32.217Z,1.98
2023-04-26T10:47:06.190Z,1.80
2023-04-26T10:48:38.218Z,2.03
2023-04-26T10:50:11.563Z,1.65
2023-04-26T10:52:11.916Z,1.95
2023-04-26T10:53:52.352Z,1.83
2023-04-26T10:55:43.115Z,2.00
2023-04-26T10:57:15.757Z,1.60
2023-04-26T10:58:47.687Z,1.77
2023-04-26T11:00:21.619Z,1.80
2023-04-26T11:01:53.676Z,1.60
2023-04-26T11:03:25.831Z,1.83
2023-04-26T11:04:58.989Z,1.40
2023-04-26T11:07:00.718Z,1.88
2023-04-26T11:08:32.742Z,1.60
2023-04-26T11:10:09.761Z,2.05
2023-04-26T11:11:52.695Z,1.95
2023-04-26T11:13:24.730Z,1.65
2023-04-26T11:15:00.320Z,1.95
2023-04-26T11:16:32.637Z,1.23
2023-04-26T11:18:05.633Z,1.50
2023-04-26T11:19:37.702Z,1.80
2023-04-26T11:21:10.223Z,1.90
2023-04-26T11:22:42.382Z,2.22
2023-04-26T11:24:16.927Z,2.13
2023-04-26T11:25:49.050Z,1.83
2023-04-26T11:27:21.001Z,2.15
2023-04-26T11:28:53.118Z,1.98
2023-04-26T11:30:25.115Z,1.92
2023-04-26T11:31:59.315Z,2.10
2023-04-26T11:33:31.601Z,2.25
2023-04-26T11:35:04.363Z,2.53
2023-04-26T11:36:38.369Z,2.55
2023-04-26T11:38:10.612Z,2.10
2023-04-26T11:39:45.558Z,1.85
2023-04-26T11:41:17.720Z,2.05
2023-04-26T11:42:49.681Z,1.80
2023-04-26T11:44:21.772Z,2.03
2023-04-26T11:45:59.979Z,1.70
2023-04-26T11:47:31.960Z,1.67
2023-04-26T11:49:03.920Z,2.00
2023-04-26T11:50:37.380Z,1.77
2023-04-26T11:52:10.133Z,1.88
2023-04-26T11:53:43.265Z,2.53
2023-04-26T11:55:15.194Z,2.08
2023-04-26T11:56:47.046Z,2.23
2023-04-26T11:58:19.048Z,2.42
2023-04-26T11:59:51.454Z,3.10
2023-04-26T12:01:24.967Z,2.78
2023-04-26T12:02:58.389Z,2.03
2023-04-26T12:04:31.325Z,2.42
2023-04-26T12:06:04.333Z,2.50
2023-04-26T12:07:39.839Z,2.50
2023-04-26T12:09:11.959Z,2.03
2023-04-26T12:10:43.906Z,2.25
2023-04-26T12:12:15.817Z,2.13
2023-04-26T12:13:47.872Z,2.63
2023-04-26T12:15:23.249Z,2.20
2023-04-26T12:16:55.234Z,1.98
2023-04-26T12:18:31.377Z,2.65
2023-04-26T12:20:10.540Z,2.03
2023-04-26T12:21:43.450Z,2.67
2023-04-26T12:24:49.107Z,2.85
2023-04-26T12:26:21.069Z,1.75
2023-04-26T12:27:53.355Z,2.67
2023-04-26T12:29:25.490Z,2.15
2023-04-26T12:30:57.761Z,2.28
2023-04-26T12:32:29.700Z,1.88
2023-04-26T12:34:01.698Z,2.13
2023-04-26T12:35:34.476Z,2.33
2023-04-26T12:37:06.629Z,2.35
2023-04-26T12:38:39.261Z,2.40
2023-04-26T12:40:12.199Z,2.70
2023-04-26T12:41:44.888Z,2.03
2023-04-26T12:43:17.071Z,2.63
2023-04-26T12:44:48.983Z,2.25
2023-04-26T12:46:21.149Z,2.17
2023-04-26T12:47:54.362Z,3.08
2023-04-26T12:49:26.463Z,2.08
2023-04-26T12:50:58.320Z,2.58
2023-04-26T12:52:30.887Z,2.17
2023-04-26T12:54:03.058Z,2.13
2023-04-26T12:55:35.189Z,2.55
2023-04-26T12:57:07.097Z,2.60
2023-04-26T12:58:39.079Z,2.50
2023-04-26T13:00:13.137Z,1.90
2023-04-26T13:01:45.070Z,2.38
2023-04-26T13:03:17.933Z,1.90
2023-04-26T13:04:50.061Z,2.70
2023-04-26T13:06:22.085Z,2.10
2023-04-26T13:07:53.973Z,2.20
2023-04-26T13:09:25.869Z,2.28
2023-04-26T13:10:58.112Z,2.53
2023-04-26T13:12:30.427Z,2.35
2023-04-26T13:14:02.454Z,2.47
2023-04-26T13:15:37.019Z,2.00
2023-04-26T13:17:09.647Z,2.28
2023-04-26T13:18:41.983Z,2.97
2023-04-26T13:20:14.248Z,2.50
2023-04-26T13:21:46.202Z,2.40
2023-04-26T13:23:18.222Z,2.08
2023-04-26T13:24:50.135Z,2.42
2023-04-26T13:26:22.052Z,1.93
2023-04-26T13:27:55.039Z,2.28
2023-04-26T13:29:27.533Z,2.50
2023-04-26T13:30:59.886Z,2.30
2023-04-26T13:32:32.247Z,2.60
2023-04-26T13:34:04.246Z,2.50
2023-04-26T13:35:36.451Z,2.13
2023-04-26T13:37:10.661Z,2.58
2023-04-26T13:38:43.295Z,2.75
2023-04-26T13:40:15.204Z,2.58
2023-04-26T13:41:47.160Z,2.30
2023-04-26T13:43:19.267Z,2.85
2023-04-26T13:44:51.943Z,2.63
2023-04-26T13:46:23.881Z,2.72
2023-04-26T13:47:56.000Z,2.70
2023-04-26T13:49:28.040Z,2.25
2023-04-26T13:51:00.028Z,3.00
2023-04-26T13:52:31.915Z,3.33
2023-04-26T13:54:06.112Z,2.33
2023-04-26T13:55:38.063Z,2.35
2023-04-26T13:57:10.021Z,2.67
2023-04-26T13:58:43.083Z,2.60
2023-04-26T14:00:15.777Z,2.08
2023-04-26T14:01:47.713Z,2.30
2023-04-26T14:03:19.854Z,2.28
2023-04-26T14:04:52.334Z,2.33
2023-04-26T14:06:24.347Z,2.47
2023-04-26T14:07:56.595Z,2.47
2023-04-26T14:09:28.485Z,2.50
2023-04-26T14:11:00.425Z,2.80
2023-04-26T14:12:32.322Z,3.10
2023-04-26T14:14:07.359Z,2.45
2023-04-26T14:15:39.224Z,2.75
2023-04-26T14:17:11.461Z,2.50
2023-04-26T14:18:45.452Z,2.40
2023-04-26T14:20:17.603Z,2.80
2023-04-26T14:21:49.431Z,2.67
2023-04-26T14:23:21.588Z,2.47
2023-04-26T14:24:53.607Z,2.80
2023-04-26T14:26:26.563Z,2.60
2023-04-26T14:27:58.534Z,2.40
2023-04-26T14:29:30.404Z,2.40
2023-04-26T14:31:03.009Z,2.28
2023-04-26T14:32:34.905Z,3.15
2023-04-26T14:34:06.970Z,1.93
2023-04-26T14:35:39.053Z,3.10
2023-04-26T14:37:11.090Z,2.92
2023-04-26T14:38:43.922Z,2.47
2023-04-26T14:41:47.623Z,2.60
2023-04-26T14:43:19.576Z,2.70
2023-04-26T14:44:51.580Z,2.63
2023-04-26T14:46:23.518Z,2.63
2023-04-26T14:47:56.335Z,2.87
2023-04-26T14:49:28.271Z,2.67
2023-04-26T14:51:00.852Z,2.37
2023-04-26T14:52:41.912Z,3.00
2023-04-26T14:54:13.900Z,2.78
2023-04-26T14:55:45.877Z,2.40
2023-04-26T14:57:17.842Z,2.80
2023-04-26T14:58:49.722Z,2.87
2023-04-26T15:00:22.990Z,2.33
2023-04-26T15:01:55.030Z,3.65
2023-04-26T15:03:27.796Z,2.63
2023-04-26T15:06:33.870Z,2.72
2023-04-26T15:08:06.653Z,3.42
2023-04-26T15:11:10.329Z,2.13
2023-04-26T15:12:42.242Z,3.10
2023-04-26T15:14:14.093Z,2.70
2023-04-26T15:15:46.027Z,3.25
2023-04-26T15:17:17.976Z,2.60
2023-04-26T15:18:50.052Z,2.50
2023-04-26T15:20:22.602Z,3.00
2023-04-26T15:21:54.496Z,2.40
2023-04-26T15:23:27.002Z,2.45
2023-04-26T15:24:58.868Z,2.33
2023-04-26T15:26:31.289Z,3.00
2023-04-26T15:28:03.718Z,3.38
2023-04-26T15:29:36.221Z,2.67
2023-04-26T15:31:09.768Z,2.78
2023-04-26T15:32:41.841Z,2.90
2023-04-26T15:34:13.780Z,2.30
2023-04-26T15:35:45.710Z,3.30
2023-04-26T15:37:17.635Z,3.17
2023-04-26T15:38:49.909Z,3.27
2023-04-26T15:40:22.517Z,3.10
2023-04-26T15:41:54.508Z,2.85
2023-04-26T15:43:26.991Z,3.17
2023-04-26T15:44:58.887Z,3.35
2023-04-26T15:46:30.959Z,2.92
2023-04-26T15:48:03.011Z,2.67
2023-04-26T15:49:35.004Z,2.50
2023-04-26T15:51:07.272Z,2.53
2023-04-26T15:52:39.886Z,3.10
2023-04-26T15:54:11.755Z,3.38
2023-04-26T15:55:43.754Z,4.13
2023-04-26T15:57:15.616Z,3.00
2023-04-26T15:58:48.017Z,3.60
2023-04-26T16:00:21.014Z,3.80
2023-04-26T16:01:53.036Z,3.92
2023-04-26T16:03:25.389Z,2.90
2023-04-26T16:04:57.844Z,3.35
2023-04-26T16:06:29.824Z,3.00
2023-04-26T16:08:01.809Z,2.70
2023-04-26T16:09:33.698Z,3.15
2023-04-26T16:11:05.637Z,2.95
2023-04-26T16:12:39.790Z,2.53
2023-04-26T16:14:11.750Z,3.75
2023-04-26T16:15:43.727Z,2.90
2023-04-26T16:17:15.726Z,2.90
2023-04-26T16:18:47.762Z,2.87
2023-04-26T16:20:19.626Z,3.47
2023-04-26T16:21:51.636Z,3.03
2023-04-26T16:23:23.814Z,3.30
2023-04-26T16:24:55.719Z,2.97
2023-04-26T16:26:28.315Z,4.25
2023-04-26T16:28:00.269Z,3.53
2023-04-26T16:29:32.311Z,3.97
2023-04-26T16:31:04.308Z,3.38
2023-04-26T16:32:39.138Z,3.33
2023-04-26T16:34:11.065Z,3.28
2023-04-26T16:35:43.037Z,3.10
2023-04-26T16:37:14.997Z,3.17
2023-04-26T16:38:46.918Z,3.23
2023-04-26T16:40:18.913Z,3.30
2023-04-26T16:41:53.900Z,3.70
2023-04-26T16:43:27.099Z,3.40
2023-04-26T16:44:59.121Z,3.42
2023-04-26T16:46:31.052Z,3.58
2023-04-26T16:48:03.026Z,3.22
2023-04-26T16:49:35.096Z,2.97
2023-04-26T16:51:07.987Z,4.38
2023-04-26T16:52:40.306Z,4.28
2023-04-26T16:54:12.160Z,3.72
2023-04-26T16:55:44.446Z,3.53
2023-04-26T16:57:16.790Z,3.85
2023-04-26T16:58:48.998Z,2.97
2023-04-26T17:00:20.993Z,3.22
2023-04-26T17:01:53.563Z,3.65
2023-04-26T17:03:32.045Z,4.05
2023-04-26T17:05:04.411Z,3.67
2023-04-26T17:06:36.869Z,4.47
2023-04-26T17:08:09.282Z,3.58
2023-04-26T17:09:41.351Z,3.42
2023-04-26T17:11:16.862Z,3.60
2023-04-26T17:12:48.853Z,3.08
2023-04-26T17:14:20.925Z,3.35
2023-04-26T17:15:54.337Z,3.65
2023-04-26T17:17:26.565Z,3.30
2023-04-26T17:18:58.714Z,3.63
2023-04-26T17:20:34.699Z,3.28
2023-04-26T17:22:07.081Z,3.35
2023-04-26T17:23:45.724Z,3.63
2023-04-26T17:25:17.677Z,3.30
2023-04-26T17:26:49.563Z,3.10
2023-04-26T17:28:21.452Z,3.60
2023-04-26T17:29:53.403Z,3.20
2023-04-26T17:31:25.407Z,3.42
2023-04-26T17:32:57.512Z,3.63
2023-04-26T17:34:29.483Z,3.38
2023-04-26T17:36:02.016Z,3.90
2023-04-26T17:37:34.240Z,3.15
2023-04-26T17:39:07.399Z,4.18
2023-04-26T17:40:39.355Z,3.60
2023-04-26T17:42:11.336Z,3.80
2023-04-26T17:43:46.249Z,3.95
2023-04-26T17:45:18.139Z,4.07
2023-04-26T17:46:52.229Z,3.15
2023-04-26T17:48:24.163Z,3.90
2023-04-26T17:49:56.099Z,3.83
2023-04-26T17:51:28.154Z,3.80
2023-04-26T17:53:00.115Z,3.83
2023-04-26T17:54:32.196Z,4.30
2023-04-26T17:56:07.544Z,3.97
2023-04-26T17:57:39.618Z,4.53
2023-04-26T17:59:11.530Z,3.95
2023-04-26T18:00:43.489Z,5.43
2023-04-26T18:02:15.453Z,4.68
2023-04-26T18:03:47.555Z,4.47
2023-04-26T18:05:19.525Z,4.55
2023-04-26T18:06:52.083Z,3.92
2023-04-26T18:08:23.930Z,4.47
2023-04-26T18:09:55.924Z,4.55
2023-04-26T18:11:27.852Z,3.95
2023-04-26T18:12:59.845Z,3.65
2023-04-26T18:14:32.203Z,3.47
2023-04-26T18:16:04.303Z,3.50
2023-04-26T18:17:36.514Z,3.88
2023-04-26T18:19:08.980Z,3.55
2023-04-26T18:20:40.977Z,3.58
2023-04-26T18:22:12.897Z,3.55
2023-04-26T18:23:47.263Z,3.30
2023-04-26T18:25:19.196Z,3.63
2023-04-26T18:26:51.449Z,4.00
2023-04-26T18:28:23.321Z,3.97
2023-04-26T18:29:55.716Z,3.85
2023-04-26T18:31:28.214Z,3.83
2023-04-26T18:33:00.349Z,4.07
2023-04-26T18:34:32.283Z,4.28
2023-04-26T18:36:04.934Z,4.40
2023-04-26T18:37:38.117Z,3.50
2023-04-26T18:39:10.020Z,4.22
2023-04-26T18:40:49.933Z,4.67
2023-04-26T18:42:21.875Z,4.20
2023-04-26T18:43:54.138Z,3.67
2023-04-26T18:45:26.201Z,4.15
2023-04-26T18:46:58.154Z,4.07
2023-04-26T18:48:30.077Z,3.97
2023-04-26T18:50:02.264Z,3.55
2023-04-26T18:51:34.544Z,4.07
2023-04-26T18:53:09.580Z,4.15
2023-04-26T18:54:41.618Z,4.05
2023-04-26T18:56:13.511Z,3.95
2023-04-26T18:57:46.142Z,3.88
2023-04-26T18:59:18.113Z,4.35
2023-04-26T19:00:50.359Z,3.25
2023-04-26T19:02:22.620Z,3.17
2023-04-26T19:03:54.910Z,3.80
2023-04-26T19:05:27.240Z,3.55
2023-04-26T19:07:00.679Z,3.60
2023-04-26T19:08:32.624Z,3.47
2023-04-26T19:10:05.203Z,4.20
2023-04-26T19:11:37.431Z,3.55
2023-04-26T19:13:09.327Z,3.78
2023-04-26T19:14:41.471Z,4.40
2023-04-26T19:16:13.441Z,3.90
2023-04-26T19:17:46.102Z,3.60
2023-04-26T19:19:18.499Z,4.05
2023-04-26T19:20:50.488Z,3.78
2023-04-26T19:22:22.453Z,4.07
2023-04-26T19:23:54.394Z,3.53
2023-04-26T19:25:27.063Z,4.13
2023-04-26T19:26:58.997Z,3.67
2023-04-26T19:28:31.320Z,3.83
2023-04-26T19:30:03.310Z,3.25
2023-04-26T19:31:35.299Z,3.67
2023-04-26T19:33:07.520Z,3.45
2023-04-26T19:34:40.992Z,3.55
2023-04-26T19:36:12.952Z,4.20
2023-04-26T19:37:44.848Z,4.00
2023-04-26T19:39:16.866Z,3.88
2023-04-26T19:40:48.762Z,4.00
2023-04-26T19:42:20.722Z,4.15
2023-04-26T19:43:52.658Z,3.42
2023-04-26T19:45:24.582Z,4.10
2023-04-26T19:46:56.876Z,3.50
2023-04-26T19:48:28.929Z,3.97
2023-04-26T19:50:01.077Z,3.85
2023-04-26T19:51:33.316Z,4.28
2023-04-26T19:53:05.255Z,3.55
2023-04-26T19:54:37.682Z,3.70
2023-04-26T19:56:12.562Z,3.75
2023-04-26T19:57:44.558Z,4.20
2023-04-26T19:59:16.483Z,4.13
2023-04-26T20:00:48.553Z,4.03
2023-04-26T20:02:20.514Z,4.22
2023-04-26T20:03:52.580Z,4.00
2023-04-26T20:05:25.840Z,4.57
2023-04-26T20:06:58.431Z,4.75
2023-04-26T20:08:31.497Z,4.72
2023-04-26T20:10:03.677Z,5.00
2023-04-26T20:11:35.646Z,4.60
2023-04-26T20:13:07.568Z,5.43
2023-04-26T20:14:39.561Z,4.73
2023-04-26T20:16:11.615Z,4.63
2023-04-26T20:17:43.902Z,4.55
2023-04-26T20:19:16.124Z,5.07
2023-04-26T20:20:48.260Z,6.57
2023-04-26T20:22:20.174Z,4.93
2023-04-26T20:23:52.101Z,5.30
2023-04-26T20:25:24.262Z,5.03
2023-04-26T20:26:56.770Z,4.57
2023-04-26T20:28:28.696Z,4.65
2023-04-26T20:30:00.819Z,5.13
2023-04-26T20:31:32.845Z,5.10
2023-04-26T20:33:04.890Z,5.47
2023-04-26T20:34:36.855Z,5.00
2023-04-26T20:36:09.324Z,5.65
2023-04-26T20:37:41.253Z,5.40
2023-04-26T20:39:13.166Z,4.70
2023-04-26T20:40:45.108Z,5.00
2023-04-26T20:42:17.293Z,5.27
2023-04-26T20:43:49.451Z,5.85
2023-04-26T20:45:21.352Z,6.28
2023-04-26T20:46:53.969Z,5.90
2023-04-26T20:48:25.899Z,5.63
2023-04-26T20:49:57.851Z,4.68
2023-04-26T20:51:29.754Z,5.57
2023-04-26T20:53:01.905Z,6.28
2023-04-26T20:54:34.181Z,5.65
2023-04-26T20:56:06.422Z,5.97
2023-04-26T20:57:38.768Z,4.55
2023-04-26T20:59:11.980Z,4.43
2023-04-26T21:00:43.837Z,4.88
2023-04-26T21:02:16.308Z,5.63
2023-04-26T21:03:48.396Z,5.63
2023-04-26T21:05:21.062Z,5.00
2023-04-26T21:06:52.964Z,4.45